createdAt,value
2023-05-19T00:02:56.745Z,100916.06
2023-05-19T00:07:52.674Z,100902.69
2023-05-19T00:12:45.676Z,100908.41
2023-05-19T00:17:39.034Z,100904.97
2023-05-19T00:22:32.992Z,100931.59
2023-05-19T00:27:26.921Z,100909.53
2023-05-19T00:32:19.569Z,100915.59
2023-05-19T00:37:11.677Z,100939.03
2023-05-19T00:42:06.362Z,100918.06
2023-05-19T00:47:03.449Z,100931.72
2023-05-19T00:51:56.896Z,100906.97
2023-05-19T00:56:50.497Z,100906.47
2023-05-19T01:01:46.365Z,100901.38
2023-05-19T01:06:39.155Z,100915.78
2023-05-19T01:11:33.025Z,100917.56
2023-05-19T01:16:38.498Z,100923.81
2023-05-19T01:21:58.443Z,100914.25
2023-05-19T01:27:00.025Z,100886.88
2023-05-19T01:31:55.323Z,100897.13
2023-05-19T01:36:50.700Z,100919.69
2023-05-19T01:41:45.810Z,100882.03
2023-05-19T01:46:39.634Z,100909.88
2023-05-19T01:51:32.867Z,100889.41
2023-05-19T01:56:42.131Z,100871.50
2023-05-19T02:01:52.869Z,100886.75
2023-05-19T02:07:05.998Z,100891.03
2023-05-19T02:12:10.976Z,100906.47
2023-05-19T02:17:05.622Z,100906.69
2023-05-19T02:21:59.896Z,100914.44
2023-05-19T02:26:54.130Z,100897.38
2023-05-19T02:31:47.985Z,100896.44
2023-05-19T02:36:44.038Z,100909.34
2023-05-19T02:41:38.607Z,100889.72
2023-05-19T02:46:31.371Z,100916.38
2023-05-19T02:51:24.688Z,100912.19
2023-05-19T02:56:17.547Z,100893.41
2023-05-19T03:01:11.714Z,100900.25
2023-05-19T03:06:05.441Z,100890.56
2023-05-19T03:10:58.297Z,100911.78
2023-05-19T03:15:51.776Z,100917.09
2023-05-19T03:20:46.269Z,100913.50
2023-05-19T03:25:39.306Z,100902.63
2023-05-19T03:30:32.413Z,100901.75
2023-05-19T03:35:35.633Z,100897.50
2023-05-19T03:40:35.033Z,100920.72
2023-05-19T03:45:32.172Z,100901.09
2023-05-19T03:50:29.190Z,100919.75
2023-05-19T03:55:30.006Z,100908.13
2023-05-19T04:00:22.992Z,100945.38
2023-05-19T04:05:17.143Z,100941.75
2023-05-19T04:10:10.452Z,100952.38
2023-05-19T04:15:08.869Z,100928.31
2023-05-19T04:20:01.916Z,100949.84
2023-05-19T04:24:59.329Z,100936.50
2023-05-19T04:29:55.227Z,100957.81
2023-05-19T04:34:52.139Z,100922.91
2023-05-19T04:39:49.372Z,100963.22
2023-05-19T04:44:41.810Z,100958.09
2023-05-19T04:49:39.004Z,100942.09
2023-05-19T04:54:32.144Z,100948.91
2023-05-19T04:59:24.834Z,100970.72
2023-05-19T05:04:18.251Z,100978.69
2023-05-19T05:09:12.304Z,100954.50
2023-05-19T05:14:05.603Z,100971.66
2023-05-19T05:18:59.607Z,100951.00
2023-05-19T05:23:52.788Z,100956.31
2023-05-19T05:28:48.914Z,100979.34
2023-05-19T05:33:42.618Z,100976.88
2023-05-19T05:38:36.721Z,100966.94
2023-05-19T05:43:31.331Z,100993.56
2023-05-19T05:48:28.028Z,100976.03
2023-05-19T05:53:21.600Z,100967.78
2023-05-19T05:58:17.700Z,100970.81
2023-05-19T06:03:11.877Z,101000.78
2023-05-19T06:08:05.937Z,100999.84
2023-05-19T06:12:59.862Z,101000.03
2023-05-19T06:17:53.529Z,100998.88
2023-05-19T06:22:46.388Z,100996.78
2023-05-19T06:27:41.689Z,100995.00
2023-05-19T06:32:34.335Z,100977.94
2023-05-19T06:37:28.547Z,100999.72
2023-05-19T06:42:23.256Z,101001.66
2023-05-19T06:47:23.712Z,101001.66
2023-05-19T06:52:17.533Z,101003.53
2023-05-19T06:57:15.256Z,101001.94
2023-05-19T07:02:08.688Z,101005.44
2023-05-19T07:07:02.356Z,101021.38
2023-05-19T07:11:56.314Z,100997.75
2023-05-19T07:16:50.176Z,100987.69
2023-05-19T07:21:43.976Z,100992.06
2023-05-19T07:26:37.398Z,100996.22
2023-05-19T07:31:30.496Z,101004.28
2023-05-19T07:36:24.620Z,100986.56
2023-05-19T07:41:21.657Z,100995.66
2023-05-19T07:46:15.075Z,100998.50
2023-05-19T07:51:13.365Z,101019.38
2023-05-19T07:56:07.364Z,101007.88
2023-05-19T08:01:00.480Z,101005.25
2023-05-19T08:05:54.075Z,101010.66
2023-05-19T08:10:47.784Z,101002.69
2023-05-19T08:15:41.831Z,101000.00
2023-05-19T08:20:35.158Z,100988.44
2023-05-19T08:25:29.007Z,100988.53
2023-05-19T08:30:21.965Z,100975.84
2023-05-19T08:35:15.330Z,100993.94
2023-05-19T08:40:13.932Z,101022.97
2023-05-19T08:45:07.342Z,101010.16
2023-05-19T08:50:11.616Z,101015.31
2023-05-19T08:55:13.162Z,101018.13
2023-05-19T09:00:12.461Z,101021.44
2023-05-19T09:05:06.550Z,101031.22
2023-05-19T09:10:01.813Z,101020.69
2023-05-19T09:14:57.159Z,100999.34
2023-05-19T09:19:50.693Z,100995.63
2023-05-19T09:24:44.669Z,100995.47
2023-05-19T09:29:38.451Z,100993.94
2023-05-19T09:34:32.149Z,100990.72
2023-05-19T09:39:29.108Z,101018.13
2023-05-19T09:44:22.840Z,101010.28
2023-05-19T09:49:21.219Z,100984.63
2023-05-19T09:54:18.347Z,101019.34
2023-05-19T09:59:13.004Z,101014.81
2023-05-19T10:04:07.170Z,101011.22
2023-05-19T10:09:01.661Z,101000.88
2023-05-19T10:13:55.040Z,100995.47
2023-05-19T10:18:50.717Z,100992.69
2023-05-19T10:23:43.858Z,100977.63
2023-05-19T10:28:39.669Z,100985.22
2023-05-19T10:34:00.321Z,100989.09
2023-05-19T10:39:36.032Z,100984.84
2023-05-19T10:44:45.234Z,100976.84
2023-05-19T10:49:40.223Z,101009.84
2023-05-19T10:54:46.755Z,100987.69
2023-05-19T10:59:39.939Z,100981.34
2023-05-19T11:04:52.839Z,100962.47
2023-05-19T11:09:53.331Z,100959.91
2023-05-19T11:14:47.095Z,100989.75
2023-05-19T11:19:43.299Z,100980.19
2023-05-19T11:24:51.117Z,100980.13
2023-05-19T11:29:45.749Z,100949.94
2023-05-19T11:34:39.725Z,100939.13
2023-05-19T11:39:33.999Z,100987.81
2023-05-19T11:44:27.585Z,100980.84
2023-05-19T11:49:20.408Z,100978.84
2023-05-19T11:54:13.747Z,100974.53
2023-05-19T11:59:06.307Z,100971.78
2023-05-19T12:03:59.912Z,100973.56
2023-05-19T12:08:56.077Z,100957.72
2023-05-19T12:13:51.377Z,100960.09
2023-05-19T12:18:43.978Z,100954.31
2023-05-19T12:23:38.212Z,100940.28
2023-05-19T12:28:34.955Z,100969.31
2023-05-19T12:33:28.199Z,100933.72
2023-05-19T12:38:21.580Z,100958.28
2023-05-19T12:43:22.828Z,100944.06
2023-05-19T12:48:17.369Z,100926.16
2023-05-19T12:53:15.018Z,100909.75
2023-05-19T12:58:11.980Z,100907.09
2023-05-19T13:03:10.818Z,100942.16
2023-05-19T13:08:17.420Z,100938.34
2023-05-19T13:13:10.846Z,100946.25
2023-05-19T13:18:06.626Z,100917.31
2023-05-19T13:22:59.687Z,100908.50
2023-05-19T13:27:53.191Z,100942.63
2023-05-19T13:32:46.566Z,100908.69
2023-05-19T13:37:40.308Z,100928.69
2023-05-19T13:42:34.404Z,100904.69
2023-05-19T13:47:27.257Z,100926.03
2023-05-19T13:52:24.466Z,100901.09
2023-05-19T13:57:19.842Z,100902.81
2023-05-19T14:02:13.200Z,100918.81
2023-05-19T14:07:26.539Z,100912.06
2023-05-19T14:12:21.601Z,100865.56
2023-05-19T14:17:18.419Z,100901.16
2023-05-19T14:22:13.834Z,100914.44
2023-05-19T14:27:06.550Z,100891.41
2023-05-19T14:32:00.269Z,100891.69
2023-05-19T14:36:54.070Z,100866.41
2023-05-19T14:41:47.600Z,100877.41
2023-05-19T14:46:39.917Z,100876.34
2023-05-19T14:51:33.176Z,100868.69
2023-05-19T14:56:26.687Z,100890.75
2023-05-19T15:01:19.884Z,100852.63
2023-05-19T15:06:12.490Z,100874.06
2023-05-19T15:11:06.735Z,100873.22
2023-05-19T15:16:15.406Z,100843.38
2023-05-19T15:21:09.690Z,100858.41
2023-05-19T15:26:02.324Z,100860.97
2023-05-19T15:30:55.059Z,100839.66
2023-05-19T15:35:52.193Z,100852.22
2023-05-19T15:40:44.933Z,100828.38
2023-05-19T15:45:39.296Z,100813.22
2023-05-19T15:50:32.440Z,100836.25
2023-05-19T15:55:25.090Z,100843.59
2023-05-19T16:00:17.806Z,100797.41
2023-05-19T16:05:11.206Z,100824.13
2023-05-19T16:10:04.191Z,100842.88
2023-05-19T16:14:58.404Z,100843.72
2023-05-19T16:19:51.475Z,100844.66
2023-05-19T16:24:44.507Z,100822.41
2023-05-19T16:29:37.594Z,100828.50
2023-05-19T16:34:31.031Z,100842.38
2023-05-19T16:39:24.470Z,100838.13
2023-05-19T16:44:19.013Z,100848.63
2023-05-19T16:49:12.969Z,100844.72
2023-05-19T16:54:05.732Z,100834.31
2023-05-19T16:59:00.410Z,100844.66
2023-05-19T17:03:53.229Z,100847.09
2023-05-19T17:08:47.917Z,100804.28
2023-05-19T17:13:43.969Z,100844.34
2023-05-19T17:18:37.202Z,100844.22
2023-05-19T17:23:29.805Z,100822.06
2023-05-19T17:34:04.711Z,100842.00
2023-05-19T17:38:57.236Z,100834.22
2023-05-19T17:43:51.299Z,100805.69
2023-05-19T17:48:44.758Z,100835.13
2023-05-19T17:53:37.971Z,100833.50
2023-05-19T17:58:31.393Z,100821.34
2023-05-19T18:03:25.326Z,100837.06
2023-05-19T18:08:20.055Z,100841.41
2023-05-19T18:13:15.849Z,100857.63
2023-05-19T18:18:11.296Z,100833.63
2023-05-19T18:23:04.544Z,100858.47
2023-05-19T18:27:58.014Z,100826.72
2023-05-19T18:32:51.405Z,100862.00
2023-05-19T18:37:44.639Z,100835.47
2023-05-19T18:42:38.752Z,100857.94
2023-05-19T18:47:31.717Z,100838.22
2023-05-19T18:52:25.168Z,100845.97
2023-05-19T18:57:18.338Z,100856.97
2023-05-19T19:02:11.550Z,100866.72
2023-05-19T19:07:04.145Z,100840.13
2023-05-19T19:11:57.070Z,100871.28
2023-05-19T19:16:50.288Z,100837.28
2023-05-19T19:21:43.852Z,100876.53
2023-05-19T19:26:38.469Z,100854.34
2023-05-19T19:31:31.181Z,100879.47
2023-05-19T19:36:24.748Z,100896.72
2023-05-19T19:41:17.730Z,100898.91
2023-05-19T19:46:10.305Z,100889.91
2023-05-19T19:51:03.768Z,100871.34
2023-05-19T19:56:00.133Z,100889.16
2023-05-19T20:01:00.316Z,100877.78
2023-05-19T20:05:54.635Z,100892.66
2023-05-19T20:10:51.311Z,100894.34
2023-05-19T20:15:44.373Z,100897.56
2023-05-19T20:20:37.918Z,100915.13
2023-05-19T20:25:31.452Z,100899.19
2023-05-19T20:30:25.148Z,100894.16
2023-05-19T20:35:23.178Z,100888.38
2023-05-19T20:40:17.066Z,100881.25
2023-05-19T20:45:10.832Z,100878.72
2023-05-19T20:50:03.321Z,100871.34
2023-05-19T20:54:56.032Z,100915.00
2023-05-19T20:59:49.763Z,100880.50
2023-05-19T21:04:43.435Z,100910.28
2023-05-19T21:09:36.897Z,100900.22
2023-05-19T21:14:29.856Z,100914.19
2023-05-19T21:19:22.969Z,100911.59
2023-05-19T21:24:16.547Z,100890.19
2023-05-19T21:29:10.799Z,100880.50
2023-05-19T21:34:04.813Z,100883.16
2023-05-19T21:38:58.008Z,100912.53
2023-05-19T21:43:51.824Z,100908.09
2023-05-19T21:48:45.683Z,100879.94
2023-05-19T21:53:39.137Z,100907.22
2023-05-19T21:58:31.952Z,100900.97
2023-05-19T22:03:25.080Z,100883.16
2023-05-19T22:08:19.907Z,100904.69
2023-05-19T22:13:13.686Z,100895.66
2023-05-19T22:18:07.454Z,100905.03
2023-05-19T22:23:01.812Z,100861.00
2023-05-19T22:27:56.660Z,100895.84
2023-05-19T22:32:50.467Z,100897.66
2023-05-19T22:37:47.275Z,100894.34
2023-05-19T22:42:39.415Z,100899.38
2023-05-19T22:47:33.331Z,100881.19
2023-05-19T22:52:28.173Z,100859.47
2023-05-19T22:57:21.776Z,100899.25
2023-05-19T23:02:15.374Z,100860.50
2023-05-19T23:07:08.507Z,100873.94
2023-05-19T23:12:01.919Z,100850.09
2023-05-19T23:16:55.358Z,100842.00
2023-05-19T23:21:49.747Z,100859.72
2023-05-19T23:26:46.259Z,100855.56
2023-05-19T23:31:46.649Z,100853.56
2023-05-19T23:36:41.041Z,100851.84
2023-05-19T23:41:34.253Z,100844.72
2023-05-19T23:46:27.688Z,100852.41
2023-05-19T23:51:20.405Z,100852.50
2023-05-19T23:56:13.441Z,100827.59
